PRIVATE WETTERSTATION BILLIGHEIM-ALLFELD                       ZURCK
Wetterdaten: Mittwoch, 17.05.2017
Datum Zeit Temp. A. Temp. A. min Temp. A. max Feuchte A. Luftdruck Regen Wind Richtung Richtung Sonnenschein ET Solar Taupunkt Windchill Windben Empfang
17.05.2017 00:00 14,3 C 14,3 C 14,7 C 77 % 1025,4 hPa 0,0 l/m 0,0 km/h (0 Bft) N-NO 22 0 min 0,025 mm 0 W/m 10,3 C 14,3 C 4,8 km/h (1 Bft) 100 %
17.05.2017 00:10 13,9 C 13,9 C 14,3 C 79 % 1025,4 hPa 0,0 l/m 0,0 km/h (0 Bft) N 360 0 min 0,000 mm 0 W/m 10,3 C 13,9 C 1,6 km/h (1 Bft) 100 %
17.05.2017 00:20 13,6 C 13,6 C 13,9 C 80 % 1025,4 hPa 0,0 l/m 0,0 km/h (0 Bft) N 0 0 min 0,000 mm 0 W/m 10,2 C 13,6 C 0,0 km/h (0 Bft) 99 %
17.05.2017 00:30 13,3 C 13,3 C 13,6 C 81 % 1025,3 hPa 0,0 l/m 0,0 km/h (0 Bft) N 0 0 min 0,000 mm 0 W/m 10,1 C 13,3 C 0,0 km/h (0 Bft) 100 %
17.05.2017 00:40 13,1 C 13,1 C 13,3 C 82 % 1025,3 hPa 0,0 l/m 0,0 km/h (0 Bft) N 0 0 min 0,000 mm 0 W/m 10,1 C 13,1 C 0,0 km/h (0 Bft) 100 %
17.05.2017 00:50 12,7 C 12,7 C 13,1 C 83 % 1025,3 hPa 0,0 l/m 0,0 km/h (0 Bft) N 0 0 min 0,000 mm 0 W/m 9,9 C 12,7 C 0,0 km/h (0 Bft) 99 %
17.05.2017 01:00 12,4 C 12,4 C 12,7 C 84 % 1025,3 hPa 0,0 l/m 0,0 km/h (0 Bft) N 0 0 min 0,025 mm 0 W/m 9,8 C 12,4 C 0,0 km/h (0 Bft) 100 %
17.05.2017 01:10 12,3 C 12,3 C 12,4 C 85 % 1025,2 hPa 0,0 l/m 0,0 km/h (0 Bft) N 0 0 min 0,000 mm 0 W/m 9,9 C 12,3 C 0,0 km/h (0 Bft) 100 %
17.05.2017 01:20 12,2 C 12,2 C 12,3 C 85 % 1025,2 hPa 0,0 l/m 0,0 km/h (0 Bft) N 0 0 min 0,000 mm 0 W/m 9,8 C 12,2 C 0,0 km/h (0 Bft) 100 %
17.05.2017 01:30 12,1 C 12,1 C 12,2 C 85 % 1025,1 hPa 0,0 l/m 0,0 km/h (0 Bft) N 360 0 min 0,000 mm 0 W/m 9,7 C 12,1 C 1,6 km/h (1 Bft) 100 %
17.05.2017 01:40 12,0 C 12,0 C 12,1 C 85 % 1025,0 hPa 0,0 l/m 0,0 km/h (0 Bft) N 360 0 min 0,000 mm 0 W/m 9,6 C 12,0 C 4,8 km/h (1 Bft) 100 %
17.05.2017 01:50 11,9 C 11,9 C 12,0 C 86 % 1024,9 hPa 0,0 l/m 0,0 km/h (0 Bft) N 360 0 min 0,000 mm 0 W/m 9,6 C 11,9 C 1,6 km/h (1 Bft) 100 %
17.05.2017 02:00 11,8 C 11,8 C 11,9 C 86 % 1024,9 hPa 0,0 l/m 0,0 km/h (0 Bft) N 0 0 min 0,000 mm 0 W/m 9,5 C 11,8 C 0,0 km/h (0 Bft) 100 %
17.05.2017 02:10 11,7 C 11,7 C 11,8 C 86 % 1024,8 hPa 0,0 l/m 0,0 km/h (0 Bft) N 0 0 min 0,000 mm 0 W/m 9,4 C 11,7 C 0,0 km/h (0 Bft) 100 %
17.05.2017 02:20 11,6 C 11,6 C 11,7 C 87 % 1024,8 hPa 0,0 l/m 0,0 km/h (0 Bft) N 360 0 min 0,000 mm 0 W/m 9,5 C 11,6 C 1,6 km/h (1 Bft) 100 %
17.05.2017 02:30 11,4 C 11,4 C 11,6 C 87 % 1024,7 hPa 0,0 l/m 0,0 km/h (0 Bft) N 0 0 min 0,000 mm 0 W/m 9,3 C 11,4 C 0,0 km/h (0 Bft) 100 %
17.05.2017 02:40 11,3 C 11,3 C 11,4 C 87 % 1024,4 hPa 0,0 l/m 0,0 km/h (0 Bft) N 360 0 min 0,000 mm 0 W/m 9,2 C 11,3 C 1,6 km/h (1 Bft) 100 %
17.05.2017 02:50 11,3 C 11,3 C 11,3 C 87 % 1024,3 hPa 0,0 l/m 0,0 km/h (0 Bft) N 0 0 min 0,000 mm 0 W/m 9,2 C 11,3 C 0,0 km/h (0 Bft) 100 %
17.05.2017 03:00 11,2 C 11,2 C 11,3 C 87 % 1024,3 hPa 0,0 l/m 0,0 km/h (0 Bft) N 0 0 min 0,000 mm 0 W/m 9,1 C 11,2 C 0,0 km/h (0 Bft) 99 %
17.05.2017 03:10 11,1 C 11,1 C 11,2 C 87 % 1024,2 hPa 0,0 l/m 0,0 km/h (0 Bft) N 0 0 min 0,000 mm 0 W/m 9,0 C 11,1 C 0,0 km/h (0 Bft) 100 %
17.05.2017 03:20 10,9 C 10,9 C 11,0 C 88 % 1024,2 hPa 0,0 l/m 0,0 km/h (0 Bft) N 360 0 min 0,000 mm 0 W/m 9,0 C 10,9 C 1,6 km/h (1 Bft) 100 %
17.05.2017 03:30 10,8 C 10,8 C 10,9 C 88 % 1024,1 hPa 0,0 l/m 0,0 km/h (0 Bft) N 0 0 min 0,000 mm 0 W/m 8,9 C 10,8 C 0,0 km/h (0 Bft) 91 %
17.05.2017 03:40 10,7 C 10,7 C 10,8 C 88 % 1024,0 hPa 0,0 l/m 0,0 km/h (0 Bft) N 0 0 min 0,000 mm 0 W/m 8,8 C 10,7 C 0,0 km/h (0 Bft) 100 %
17.05.2017 03:50 10,7 C 10,6 C 10,7 C 88 % 1024,0 hPa 0,0 l/m 0,0 km/h (0 Bft) N 0 0 min 0,000 mm 0 W/m 8,8 C 10,7 C 0,0 km/h (0 Bft) 100 %
17.05.2017 04:00 10,6 C 10,6 C 10,7 C 88 % 1023,9 hPa 0,0 l/m 0,0 km/h (0 Bft) N 0 0 min 0,000 mm 0 W/m 8,7 C 10,6 C 0,0 km/h (0 Bft) 100 %
17.05.2017 04:10 10,5 C 10,5 C 10,6 C 88 % 1023,8 hPa 0,0 l/m 0,0 km/h (0 Bft) N 360 0 min 0,000 mm 0 W/m 8,6 C 10,5 C 1,6 km/h (1 Bft) 100 %
17.05.2017 04:20 10,4 C 10,4 C 10,5 C 88 % 1023,8 hPa 0,0 l/m 0,0 km/h (0 Bft) N 0 0 min 0,000 mm 0 W/m 8,5 C 10,4 C 0,0 km/h (0 Bft) 100 %
17.05.2017 04:30 10,4 C 10,4 C 10,4 C 89 % 1023,7 hPa 0,0 l/m 0,0 km/h (0 Bft) N 0 0 min 0,000 mm 0 W/m 8,7 C 10,4 C 0,0 km/h (0 Bft) 100 %
17.05.2017 04:40 10,4 C 10,4 C 10,4 C 89 % 1023,6 hPa 0,0 l/m 0,0 km/h (0 Bft) N 0 0 min 0,000 mm 0 W/m 8,7 C 10,4 C 0,0 km/h (0 Bft) 100 %
17.05.2017 04:50 10,3 C 10,3 C 10,4 C 89 % 1023,6 hPa 0,0 l/m 0,0 km/h (0 Bft) N 0 0 min 0,000 mm 0 W/m 8,6 C 10,3 C 0,0 km/h (0 Bft) 100 %
17.05.2017 05:00 10,2 C 10,2 C 10,3 C 89 % 1023,5 hPa 0,0 l/m 0,0 km/h (0 Bft) N 360 0 min 0,000 mm 0 W/m 8,5 C 10,2 C 4,8 km/h (1 Bft) 100 %
17.05.2017 05:10 10,1 C 10,1 C 10,2 C 89 % 1023,4 hPa 0,0 l/m 0,0 km/h (0 Bft) N 0 0 min 0,000 mm 0 W/m 8,4 C 10,1 C 0,0 km/h (0 Bft) 100 %
17.05.2017 05:20 10,1 C 10,1 C 10,1 C 89 % 1023,4 hPa 0,0 l/m 0,0 km/h (0 Bft) N 360 0 min 0,000 mm 0 W/m 8,4 C 10,1 C 1,6 km/h (1 Bft) 100 %
17.05.2017 05:30 10,1 C 10,1 C 10,2 C 89 % 1023,3 hPa 0,0 l/m 0,0 km/h (0 Bft) N 0 0 min 0,000 mm 0 W/m 8,4 C 10,1 C 0,0 km/h (0 Bft) 100 %
17.05.2017 05:40 10,0 C 10,0 C 10,1 C 89 % 1023,4 hPa 0,0 l/m 0,0 km/h (0 Bft) N 360 0 min 0,000 mm 0 W/m 8,3 C 10,0 C 1,6 km/h (1 Bft) 100 %
17.05.2017 05:50 10,1 C 10,0 C 10,1 C 89 % 1023,4 hPa 0,0 l/m 0,0 km/h (0 Bft) N 0 0 min 0,000 mm 7 W/m 8,4 C 10,1 C 0,0 km/h (0 Bft) 100 %
17.05.2017 06:00 10,2 C 10,1 C 10,2 C 89 % 1023,3 hPa 0,0 l/m 0,0 km/h (0 Bft) N 360 0 min 0,000 mm 9 W/m 8,5 C 10,2 C 1,6 km/h (1 Bft) 100 %
17.05.2017 06:10 10,3 C 10,2 C 10,3 C 89 % 1023,2 hPa 0,0 l/m 0,0 km/h (0 Bft) N 0 0 min 0,000 mm 11 W/m 8,6 C 10,3 C 0,0 km/h (0 Bft) 100 %
17.05.2017 06:20 10,2 C 10,2 C 10,3 C 89 % 1023,2 hPa 0,0 l/m 0,0 km/h (0 Bft) N 0 0 min 0,000 mm 14 W/m 8,5 C 10,2 C 0,0 km/h (0 Bft) 100 %
17.05.2017 06:30 10,2 C 10,1 C 10,2 C 89 % 1023,1 hPa 0,0 l/m 0,0 km/h (0 Bft) N 0 0 min 0,000 mm 16 W/m 8,5 C 10,2 C 0,0 km/h (0 Bft) 89 %
17.05.2017 06:40 10,1 C 10,1 C 10,2 C 89 % 1023,1 hPa 0,0 l/m 0,0 km/h (0 Bft) N 360 0 min 0,000 mm 18 W/m 8,4 C 10,1 C 1,6 km/h (1 Bft) 100 %
17.05.2017 06:50 10,2 C 10,1 C 10,2 C 89 % 1023,1 hPa 0,0 l/m 0,0 km/h (0 Bft) N 0 0 min 0,000 mm 19 W/m 8,5 C 10,2 C 0,0 km/h (0 Bft) 100 %
17.05.2017 07:00 10,2 C 10,2 C 10,2 C 89 % 1023,1 hPa 0,0 l/m 0,0 km/h (0 Bft) N 360 0 min 0,000 mm 21 W/m 8,5 C 10,2 C 4,8 km/h (1 Bft) 100 %
17.05.2017 07:10 10,3 C 10,2 C 10,3 C 89 % 1023,1 hPa 0,0 l/m 0,0 km/h (0 Bft) N 360 0 min 0,000 mm 21 W/m 8,6 C 10,3 C 4,8 km/h (1 Bft) 100 %
17.05.2017 07:20 10,5 C 10,3 C 10,5 C 90 % 1023,0 hPa 0,0 l/m 0,0 km/h (0 Bft) N 0 0 min 0,000 mm 25 W/m 8,9 C 10,5 C 0,0 km/h (0 Bft) 100 %
17.05.2017 07:30 10,7 C 10,5 C 10,7 C 89 % 1023,0 hPa 0,0 l/m 0,0 km/h (0 Bft) N 0 0 min 0,000 mm 25 W/m 9,0 C 10,7 C 0,0 km/h (0 Bft) 100 %
17.05.2017 07:40 10,9 C 10,7 C 10,9 C 90 % 1022,9 hPa 0,0 l/m 0,0 km/h (0 Bft) N 360 0 min 0,000 mm 26 W/m 9,3 C 10,9 C 1,6 km/h (1 Bft) 100 %
17.05.2017 07:50 11,3 C 10,9 C 11,3 C 90 % 1022,9 hPa 0,0 l/m 0,0 km/h (0 Bft) N 0 0 min 0,000 mm 35 W/m 9,7 C 11,3 C 0,0 km/h (0 Bft) 100 %
17.05.2017 08:00 11,7 C 11,3 C 11,7 C 90 % 1022,8 hPa 0,0 l/m 0,0 km/h (0 Bft) N 0 0 min 0,025 mm 30 W/m 10,1 C 11,7 C 0,0 km/h (0 Bft) 100 %
17.05.2017 08:10 12,3 C 11,7 C 12,3 C 90 % 1022,8 hPa 0,0 l/m 0,0 km/h (0 Bft) N-NW 337 0 min 0,000 mm 123 W/m 10,7 C 12,3 C 1,6 km/h (1 Bft) 100 %
17.05.2017 08:20 13,2 C 12,3 C 13,2 C 89 % 1022,7 hPa 0,0 l/m 0,0 km/h (0 Bft) N 0 10 min 0,000 mm 338 W/m 11,4 C 13,2 C 0,0 km/h (0 Bft) 100 %
17.05.2017 08:30 14,2 C 13,2 C 14,2 C 87 % 1022,6 hPa 0,0 l/m 0,0 km/h (0 Bft) N 0 10 min 0,000 mm 422 W/m 12,1 C 14,2 C 0,0 km/h (0 Bft) 100 %
17.05.2017 08:40 15,7 C 14,3 C 15,7 C 83 % 1022,7 hPa 0,0 l/m 0,0 km/h (0 Bft) N 0 10 min 0,000 mm 455 W/m 12,8 C 15,7 C 0,0 km/h (0 Bft) 100 %
17.05.2017 08:50 17,3 C 15,7 C 17,3 C 75 % 1022,6 hPa 0,0 l/m 0,0 km/h (0 Bft) O-NO 67 10 min 0,000 mm 482 W/m 12,8 C 17,3 C 1,6 km/h (1 Bft) 100 %
17.05.2017 09:00 18,8 C 17,3 C 18,8 C 67 % 1022,5 hPa 0,0 l/m 0,0 km/h (0 Bft) SO 135 10 min 0,178 mm 512 W/m 12,5 C 18,8 C 1,6 km/h (1 Bft) 100 %
17.05.2017 09:10 19,9 C 18,8 C 19,9 C 65 % 1022,4 hPa 0,0 l/m 0,0 km/h (0 Bft) O 90 10 min 0,000 mm 541 W/m 13,1 C 19,9 C 6,4 km/h (2 Bft) 100 %
17.05.2017 09:20 20,6 C 19,9 C 20,6 C 62 % 1022,4 hPa 0,0 l/m 0,0 km/h (0 Bft) O-SO 112 10 min 0,000 mm 568 W/m 13,1 C 20,6 C 11,3 km/h (2 Bft) 100 %
17.05.2017 09:30 21,2 C 20,7 C 21,2 C 58 % 1022,1 hPa 0,0 l/m 1,6 km/h (1 Bft) O-SO 112 10 min 0,000 mm 592 W/m 12,6 C 21,2 C 14,5 km/h (3 Bft) 100 %
17.05.2017 09:40 21,4 C 21,2 C 21,4 C 56 % 1022,0 hPa 0,0 l/m 1,6 km/h (1 Bft) O-SO 112 10 min 0,000 mm 621 W/m 12,3 C 21,4 C 11,3 km/h (2 Bft) 100 %
17.05.2017 09:50 21,8 C 21,4 C 21,8 C 57 % 1021,9 hPa 0,0 l/m 1,6 km/h (1 Bft) SO 135 10 min 0,000 mm 647 W/m 12,9 C 21,8 C 11,3 km/h (2 Bft) 100 %
17.05.2017 10:00 22,1 C 21,8 C 22,1 C 57 % 1021,7 hPa 0,0 l/m 1,6 km/h (1 Bft) O-SO 112 10 min 0,356 mm 670 W/m 13,2 C 22,1 C 9,7 km/h (2 Bft) 100 %
17.05.2017 10:10 22,4 C 22,1 C 22,4 C 52 % 1021,5 hPa 0,0 l/m 1,6 km/h (1 Bft) S-SO 157 10 min 0,000 mm 694 W/m 12,1 C 22,4 C 11,3 km/h (2 Bft) 100 %
17.05.2017 10:20 22,6 C 22,4 C 22,6 C 52 % 1021,5 hPa 0,0 l/m 3,2 km/h (1 Bft) SO 135 10 min 0,000 mm 717 W/m 12,2 C 22,6 C 14,5 km/h (3 Bft) 100 %
17.05.2017 10:30 22,9 C 22,6 C 22,9 C 57 % 1021,6 hPa 0,0 l/m 3,2 km/h (1 Bft) SO 135 10 min 0,000 mm 737 W/m 13,9 C 22,9 C 17,7 km/h (3 Bft) 100 %
17.05.2017 10:40 22,9 C 22,9 C 23,0 C 49 % 1021,5 hPa 0,0 l/m 4,8 km/h (1 Bft) SO 135 10 min 0,000 mm 758 W/m 11,6 C 22,9 C 17,7 km/h (3 Bft) 100 %
17.05.2017 10:50 23,0 C 22,9 C 23,0 C 54 % 1021,2 hPa 0,0 l/m 4,8 km/h (1 Bft) SO 135 10 min 0,000 mm 779 W/m 13,2 C 23,0 C 19,3 km/h (3 Bft) 99 %
17.05.2017 11:00 23,4 C 22,9 C 23,4 C 52 % 1021,1 hPa 0,0 l/m 1,6 km/h (1 Bft) SO 135 10 min 0,457 mm 800 W/m 13,0 C 23,4 C 17,7 km/h (3 Bft) 100 %
17.05.2017 11:10 23,6 C 23,4 C 23,6 C 50 % 1021,1 hPa 0,0 l/m 3,2 km/h (1 Bft) O-SO 112 10 min 0,000 mm 814 W/m 12,6 C 23,6 C 20,9 km/h (4 Bft) 100 %
17.05.2017 11:20 23,8 C 23,6 C 23,8 C 51 % 1020,9 hPa 0,0 l/m 1,6 km/h (1 Bft) O-SO 112 10 min 0,000 mm 830 W/m 13,0 C 23,8 C 11,3 km/h (2 Bft) 100 %
17.05.2017 11:30 23,8 C 23,7 C 23,8 C 51 % 1020,8 hPa 0,0 l/m 4,8 km/h (1 Bft) O-SO 112 10 min 0,000 mm 844 W/m 13,0 C 23,8 C 19,3 km/h (3 Bft) 100 %
17.05.2017 11:40 23,8 C 23,8 C 23,8 C 51 % 1020,6 hPa 0,0 l/m 4,8 km/h (1 Bft) SO 135 10 min 0,000 mm 858 W/m 13,0 C 23,8 C 20,9 km/h (4 Bft) 100 %
17.05.2017 11:50 24,1 C 23,8 C 24,1 C 49 % 1020,4 hPa 0,0 l/m 3,2 km/h (1 Bft) S-SO 157 10 min 0,000 mm 868 W/m 12,7 C 24,1 C 16,1 km/h (3 Bft) 100 %
17.05.2017 12:00 24,6 C 24,1 C 24,6 C 49 % 1020,3 hPa 0,0 l/m 1,6 km/h (1 Bft) S-SO 157 10 min 0,533 mm 916 W/m 13,2 C 24,6 C 12,9 km/h (3 Bft) 99 %
17.05.2017 12:10 24,3 C 24,2 C 24,7 C 49 % 1020,3 hPa 0,0 l/m 4,8 km/h (1 Bft) SO 135 10 min 0,000 mm 879 W/m 12,9 C 24,3 C 19,3 km/h (3 Bft) 100 %
17.05.2017 12:20 24,3 C 24,2 C 24,3 C 54 % 1020,0 hPa 0,0 l/m 1,6 km/h (1 Bft) S-SO 157 10 min 0,000 mm 842 W/m 14,4 C 24,3 C 19,3 km/h (3 Bft) 100 %
17.05.2017 12:30 24,8 C 24,3 C 24,8 C 55 % 1019,9 hPa 0,0 l/m 1,6 km/h (1 Bft) SO 135 10 min 0,000 mm 923 W/m 15,1 C 24,8 C 14,5 km/h (3 Bft) 100 %
17.05.2017 12:40 25,0 C 24,8 C 25,0 C 46 % 1019,8 hPa 0,0 l/m 4,8 km/h (1 Bft) O-SO 112 10 min 0,000 mm 932 W/m 12,6 C 25,0 C 16,1 km/h (3 Bft) 100 %
17.05.2017 12:50 25,1 C 25,0 C 25,1 C 49 % 1019,6 hPa 0,0 l/m 3,2 km/h (1 Bft) SO 135 10 min 0,000 mm 935 W/m 13,6 C 25,1 C 16,1 km/h (3 Bft) 100 %
17.05.2017 13:00 25,0 C 24,9 C 25,1 C 47 % 1019,3 hPa 0,0 l/m 3,2 km/h (1 Bft) O-SO 112 10 min 0,559 mm 926 W/m 12,9 C 25,0 C 19,3 km/h (3 Bft) 100 %
17.05.2017 13:10 25,1 C 25,0 C 25,2 C 46 % 1019,2 hPa 0,0 l/m 4,8 km/h (1 Bft) O-SO 112 10 min 0,000 mm 926 W/m 12,7 C 25,1 C 16,1 km/h (3 Bft) 100 %
17.05.2017 13:20 25,3 C 25,1 C 25,3 C 47 % 1019,1 hPa 0,0 l/m 4,8 km/h (1 Bft) SO 135 10 min 0,000 mm 925 W/m 13,2 C 25,3 C 16,1 km/h (3 Bft) 100 %
17.05.2017 13:30 25,4 C 25,2 C 25,4 C 49 % 1018,7 hPa 0,0 l/m 3,2 km/h (1 Bft) O-SO 112 10 min 0,000 mm 921 W/m 13,9 C 25,4 C 20,9 km/h (4 Bft) 100 %
17.05.2017 13:40 25,9 C 25,4 C 25,9 C 46 % 1018,8 hPa 0,0 l/m 1,6 km/h (1 Bft) SO 135 10 min 0,000 mm 919 W/m 13,4 C 25,9 C 14,5 km/h (3 Bft) 100 %
17.05.2017 13:50 25,9 C 25,9 C 26,0 C 45 % 1018,5 hPa 0,0 l/m 3,2 km/h (1 Bft) O-SO 112 10 min 0,000 mm 916 W/m 13,0 C 25,9 C 20,9 km/h (4 Bft) 100 %
17.05.2017 14:00 26,2 C 26,0 C 26,2 C 44 % 1018,5 hPa 0,0 l/m 1,6 km/h (1 Bft) O-SO 112 10 min 0,610 mm 912 W/m 13,0 C 26,2 C 17,7 km/h (3 Bft) 100 %
17.05.2017 14:10 26,0 C 26,0 C 26,2 C 45 % 1018,4 hPa 0,0 l/m 4,8 km/h (1 Bft) SO 135 10 min 0,000 mm 905 W/m 13,1 C 26,0 C 19,3 km/h (3 Bft) 100 %
17.05.2017 14:20 26,0 C 26,0 C 26,0 C 45 % 1018,3 hPa 0,0 l/m 3,2 km/h (1 Bft) O-SO 112 10 min 0,000 mm 898 W/m 13,1 C 26,0 C 16,1 km/h (3 Bft) 99 %
17.05.2017 14:30 26,3 C 26,0 C 26,3 C 46 % 1018,2 hPa 0,0 l/m 4,8 km/h (1 Bft) SO 135 10 min 0,000 mm 886 W/m 13,7 C 26,3 C 22,5 km/h (4 Bft) 99 %
17.05.2017 14:40 26,7 C 26,2 C 26,7 C 47 % 1018,1 hPa 0,0 l/m 0,0 km/h (0 Bft) S-SO 157 10 min 0,000 mm 881 W/m 14,4 C 26,7 C 9,7 km/h (2 Bft) 99 %
17.05.2017 14:50 26,7 C 26,7 C 26,8 C 45 % 1017,8 hPa 0,0 l/m 3,2 km/h (1 Bft) SO 135 10 min 0,000 mm 874 W/m 13,8 C 26,7 C 17,7 km/h (3 Bft) 100 %
17.05.2017 15:00 26,6 C 26,6 C 26,7 C 47 % 1017,7 hPa 0,0 l/m 4,8 km/h (1 Bft) O-SO 112 10 min 0,508 mm 301 W/m 14,3 C 26,6 C 19,3 km/h (3 Bft) 100 %
17.05.2017 15:10 26,6 C 26,6 C 26,7 C 44 % 1017,6 hPa 0,0 l/m 1,6 km/h (1 Bft) O-SO 112 10 min 0,000 mm 367 W/m 13,3 C 26,6 C 16,1 km/h (3 Bft) 99 %
17.05.2017 15:20 26,6 C 26,5 C 26,6 C 45 % 1017,3 hPa 0,0 l/m 1,6 km/h (1 Bft) SO 135 10 min 0,000 mm 318 W/m 13,7 C 26,6 C 11,3 km/h (2 Bft) 99 %
17.05.2017 15:30 26,6 C 26,6 C 26,6 C 46 % 1017,2 hPa 0,0 l/m 1,6 km/h (1 Bft) O-SO 112 0 min 0,000 mm 90 W/m 14,0 C 26,6 C 16,1 km/h (3 Bft) 99 %
17.05.2017 15:40 26,7 C 26,6 C 26,7 C 46 % 1017,1 hPa 0,0 l/m 1,6 km/h (1 Bft) O-SO 112 0 min 0,000 mm 118 W/m 14,1 C 26,7 C 11,3 km/h (2 Bft) 99 %
17.05.2017 15:50 26,9 C 26,7 C 26,9 C 47 % 1016,8 hPa 0,0 l/m 0,0 km/h (0 Bft) SO 135 0 min 0,000 mm 141 W/m 14,6 C 26,9 C 16,1 km/h (3 Bft) 99 %
17.05.2017 16:00 27,1 C 26,9 C 27,1 C 44 % 1016,6 hPa 0,0 l/m 0,0 km/h (0 Bft) SO 135 10 min 0,127 mm 346 W/m 13,8 C 27,1 C 6,4 km/h (2 Bft) 99 %
17.05.2017 16:10 27,0 C 27,0 C 27,2 C 43 % 1016,3 hPa 0,0 l/m 1,6 km/h (1 Bft) O 90 10 min 0,000 mm 629 W/m 13,3 C 27,0 C 14,5 km/h (3 Bft) 100 %
17.05.2017 16:20 26,8 C 26,8 C 27,0 C 45 % 1016,2 hPa 0,0 l/m 3,2 km/h (1 Bft) O-SO 112 10 min 0,000 mm 682 W/m 13,9 C 26,8 C 17,7 km/h (3 Bft) 100 %
17.05.2017 16:30 26,8 C 26,7 C 26,8 C 45 % 1016,1 hPa 0,0 l/m 1,6 km/h (1 Bft) SO 135 10 min 0,000 mm 659 W/m 13,9 C 26,8 C 16,1 km/h (3 Bft) 100 %
17.05.2017 16:40 26,9 C 26,8 C 26,9 C 46 % 1015,9 hPa 0,0 l/m 1,6 km/h (1 Bft) O 90 10 min 0,000 mm 316 W/m 14,3 C 26,9 C 11,3 km/h (2 Bft) 100 %
17.05.2017 16:50 26,8 C 26,8 C 26,9 C 44 % 1015,9 hPa 0,0 l/m 3,2 km/h (1 Bft) SO 135 0 min 0,000 mm 100 W/m 13,5 C 26,8 C 20,9 km/h (4 Bft) 99 %
17.05.2017 17:00 26,6 C 26,6 C 26,8 C 47 % 1015,6 hPa 0,0 l/m 3,2 km/h (1 Bft) O-SO 112 0 min 0,229 mm 63 W/m 14,3 C 26,6 C 19,3 km/h (3 Bft) 100 %
17.05.2017 17:10 26,6 C 26,6 C 26,7 C 46 % 1015,6 hPa 0,0 l/m 3,2 km/h (1 Bft) SO 135 0 min 0,000 mm 62 W/m 14,0 C 26,6 C 14,5 km/h (3 Bft) 100 %
17.05.2017 17:20 26,5 C 26,5 C 26,6 C 44 % 1015,4 hPa 0,0 l/m 3,2 km/h (1 Bft) O-SO 112 0 min 0,000 mm 63 W/m 13,2 C 26,5 C 17,7 km/h (3 Bft) 100 %
17.05.2017 17:30 26,4 C 26,4 C 26,5 C 45 % 1015,4 hPa 0,0 l/m 3,2 km/h (1 Bft) O-SO 112 0 min 0,000 mm 58 W/m 13,5 C 26,4 C 17,7 km/h (3 Bft) 100 %
17.05.2017 17:40 26,4 C 26,4 C 26,5 C 46 % 1015,3 hPa 0,0 l/m 1,5 km/h (1 Bft) SO 138 0 min 0,000 mm 58 W/m 13,8 C 26,4 C 8,0 km/h (2 Bft) 100 %
17.05.2017 17:50 26,6 C 26,4 C 26,6 C 46 % 1015,1 hPa 0,0 l/m 0,5 km/h (0 Bft) O 90 0 min 0,000 mm 54 W/m 14,0 C 26,6 C 8,0 km/h (2 Bft) 100 %
17.05.2017 18:00 26,5 C 26,5 C 26,6 C 45 % 1015,0 hPa 0,0 l/m 2,1 km/h (1 Bft) SO 128 0 min 0,051 mm 53 W/m 13,6 C 26,5 C 11,3 km/h (2 Bft) 100 %
17.05.2017 18:10 26,3 C 26,3 C 26,5 C 46 % 1014,9 hPa 0,0 l/m 1,6 km/h (1 Bft) SO 128 0 min 0,000 mm 53 W/m 13,7 C 26,3 C 19,3 km/h (3 Bft) 100 %
17.05.2017 18:20 26,3 C 26,3 C 26,3 C 48 % 1014,6 hPa 0,0 l/m 1,3 km/h (1 Bft) O-SO 103 0 min 0,000 mm 49 W/m 14,4 C 26,3 C 16,1 km/h (3 Bft) 100 %
17.05.2017 18:30 26,1 C 26,1 C 26,3 C 49 % 1014,5 hPa 0,0 l/m 1,8 km/h (1 Bft) SO 142 0 min 0,000 mm 49 W/m 14,5 C 26,1 C 19,3 km/h (3 Bft) 100 %
17.05.2017 18:40 26,0 C 26,0 C 26,1 C 51 % 1014,5 hPa 0,0 l/m 1,0 km/h (0 Bft) SO 125 0 min 0,000 mm 47 W/m 15,1 C 26,0 C 11,3 km/h (2 Bft) 100 %
17.05.2017 18:50 25,8 C 25,8 C 26,0 C 49 % 1014,5 hPa 0,0 l/m 3,1 km/h (1 Bft) O-SO 113 0 min 0,000 mm 47 W/m 14,3 C 25,8 C 20,9 km/h (4 Bft) 100 %
17.05.2017 19:00 25,7 C 25,7 C 25,8 C 50 % 1014,3 hPa 0,0 l/m 0,4 km/h (0 Bft) O 92 0 min 0,051 mm 46 W/m 14,5 C 25,7 C 8,0 km/h (2 Bft) 100 %
17.05.2017 19:10 25,5 C 25,5 C 25,7 C 48 % 1014,2 hPa 0,0 l/m 0,9 km/h (0 Bft) O 95 0 min 0,000 mm 42 W/m 13,7 C 25,5 C 9,7 km/h (2 Bft) 99 %
17.05.2017 19:20 25,2 C 25,2 C 25,5 C 52 % 1014,1 hPa 0,0 l/m 0,4 km/h (0 Bft) O 82 0 min 0,000 mm 40 W/m 14,6 C 25,2 C 9,7 km/h (2 Bft) 100 %
17.05.2017 19:30 24,9 C 24,9 C 25,2 C 52 % 1014,0 hPa 0,0 l/m 0,3 km/h (0 Bft) O-SO 109 0 min 0,000 mm 39 W/m 14,4 C 24,9 C 4,8 km/h (1 Bft) 100 %
17.05.2017 19:40 24,6 C 24,6 C 24,9 C 53 % 1014,0 hPa 0,0 l/m 1,0 km/h (0 Bft) O-SO 105 0 min 0,000 mm 32 W/m 14,4 C 24,6 C 14,5 km/h (3 Bft) 100 %
17.05.2017 19:50 24,3 C 24,3 C 24,6 C 52 % 1014,0 hPa 0,0 l/m 0,0 km/h (0 Bft) SO 135 0 min 0,000 mm 28 W/m 13,8 C 24,3 C 1,6 km/h (1 Bft) 100 %
17.05.2017 20:00 23,9 C 23,9 C 24,3 C 54 % 1013,9 hPa 0,0 l/m 0,0 km/h (0 Bft) SO 124 0 min 0,000 mm 32 W/m 14,0 C 23,9 C 1,6 km/h (1 Bft) 100 %
17.05.2017 20:10 23,6 C 23,6 C 23,9 C 55 % 1013,9 hPa 0,0 l/m 0,9 km/h (0 Bft) O-SO 111 0 min 0,025 mm 28 W/m 14,0 C 23,6 C 8,0 km/h (2 Bft) 99 %
17.05.2017 20:20 23,3 C 23,3 C 23,6 C 54 % 1013,9 hPa 0,0 l/m 0,2 km/h (0 Bft) O-SO 116 0 min 0,000 mm 21 W/m 13,5 C 23,3 C 4,8 km/h (1 Bft) 100 %
17.05.2017 20:30 23,1 C 23,1 C 23,3 C 56 % 1013,7 hPa 0,0 l/m 1,4 km/h (1 Bft) O-SO 105 0 min 0,000 mm 16 W/m 13,8 C 23,1 C 9,7 km/h (2 Bft) 100 %
17.05.2017 20:40 22,7 C 22,7 C 23,1 C 57 % 1013,6 hPa 0,0 l/m 2,5 km/h (1 Bft) SO 124 0 min 0,000 mm 11 W/m 13,7 C 22,7 C 11,3 km/h (2 Bft) 100 %
17.05.2017 20:50 22,3 C 22,3 C 22,7 C 60 % 1013,6 hPa 0,0 l/m 1,5 km/h (1 Bft) O-SO 110 0 min 0,000 mm 7 W/m 14,2 C 22,3 C 8,0 km/h (2 Bft) 100 %
17.05.2017 21:00 21,9 C 21,9 C 22,3 C 60 % 1013,6 hPa 0,0 l/m 1,3 km/h (1 Bft) S-SO 163 0 min 0,000 mm 0 W/m 13,8 C 21,9 C 9,7 km/h (2 Bft) 100 %
17.05.2017 21:10 21,6 C 21,6 C 21,9 C 59 % 1013,5 hPa 0,0 l/m 1,6 km/h (1 Bft) O 90 0 min 0,000 mm 0 W/m 13,2 C 21,6 C 9,7 km/h (2 Bft) 100 %
17.05.2017 21:20 21,4 C 21,4 C 21,6 C 61 % 1013,4 hPa 0,0 l/m 1,6 km/h (1 Bft) O 90 0 min 0,000 mm 0 W/m 13,6 C 21,4 C 11,3 km/h (2 Bft) 100 %
17.05.2017 21:30 21,3 C 21,3 C 21,4 C 61 % 1013,4 hPa 0,0 l/m 3,2 km/h (1 Bft) O-SO 112 0 min 0,000 mm 0 W/m 13,5 C 21,3 C 11,3 km/h (2 Bft) 100 %
17.05.2017 21:40 21,2 C 21,2 C 21,3 C 61 % 1013,5 hPa 0,0 l/m 1,6 km/h (1 Bft) O 90 0 min 0,000 mm 0 W/m 13,4 C 21,2 C 11,3 km/h (2 Bft) 100 %
17.05.2017 21:50 21,0 C 21,0 C 21,2 C 61 % 1013,4 hPa 0,0 l/m 1,6 km/h (1 Bft) O-SO 112 0 min 0,000 mm 0 W/m 13,2 C 21,0 C 8,0 km/h (2 Bft) 100 %
17.05.2017 22:00 20,8 C 20,8 C 21,0 C 61 % 1013,6 hPa 0,0 l/m 1,6 km/h (1 Bft) O 90 0 min 0,025 mm 0 W/m 13,0 C 20,8 C 9,7 km/h (2 Bft) 100 %
17.05.2017 22:10 20,8 C 20,8 C 20,8 C 62 % 1013,4 hPa 0,0 l/m 1,6 km/h (1 Bft) O 90 0 min 0,000 mm 0 W/m 13,2 C 20,8 C 8,0 km/h (2 Bft) 100 %
17.05.2017 22:20 20,6 C 20,6 C 20,8 C 62 % 1013,5 hPa 0,0 l/m 1,6 km/h (1 Bft) O-SO 112 0 min 0,000 mm 0 W/m 13,1 C 20,6 C 8,0 km/h (2 Bft) 100 %
17.05.2017 22:30 20,4 C 20,4 C 20,6 C 64 % 1013,4 hPa 0,0 l/m 1,6 km/h (1 Bft) SO 135 0 min 0,000 mm 0 W/m 13,4 C 20,4 C 11,3 km/h (2 Bft) 100 %
17.05.2017 22:40 20,2 C 20,2 C 20,4 C 63 % 1013,4 hPa 0,0 l/m 1,6 km/h (1 Bft) O-NO 67 0 min 0,000 mm 0 W/m 12,9 C 20,2 C 6,4 km/h (2 Bft) 99 %
17.05.2017 22:50 20,1 C 20,1 C 20,2 C 64 % 1013,3 hPa 0,0 l/m 1,6 km/h (1 Bft) O-SO 112 0 min 0,000 mm 0 W/m 13,1 C 20,1 C 9,7 km/h (2 Bft) 99 %
17.05.2017 23:00 19,9 C 19,9 C 20,1 C 64 % 1013,3 hPa 0,0 l/m 3,2 km/h (1 Bft) O-SO 112 0 min 0,051 mm 0 W/m 12,9 C 19,9 C 8,0 km/h (2 Bft) 98 %
17.05.2017 23:10 19,8 C 19,8 C 19,9 C 64 % 1013,2 hPa 0,0 l/m 0,0 km/h (0 Bft) O-SO 112 0 min 0,000 mm 0 W/m 12,8 C 19,8 C 6,4 km/h (2 Bft) 97 %
17.05.2017 23:20 19,7 C 19,7 C 19,8 C 65 % 1013,1 hPa 0,0 l/m 1,6 km/h (1 Bft) O 90 0 min 0,000 mm 0 W/m 12,9 C 19,7 C 9,7 km/h (2 Bft) 98 %
17.05.2017 23:30 19,4 C 19,4 C 19,7 C 65 % 1013,0 hPa 0,0 l/m 0,0 km/h (0 Bft) O 90 0 min 0,000 mm 0 W/m 12,6 C 19,4 C 8,0 km/h (2 Bft) 98 %
17.05.2017 23:40 19,3 C 19,3 C 19,4 C 66 % 1012,9 hPa 0,0 l/m 0,0 km/h (0 Bft) O-SO 112 0 min 0,000 mm 0 W/m 12,8 C 19,3 C 3,2 km/h (1 Bft) 98 %
17.05.2017 23:50 19,2 C 19,2 C 19,3 C 66 % 1012,9 hPa 0,0 l/m 0,0 km/h (0 Bft) O 90 0 min 0,000 mm 0 W/m 12,7 C 19,2 C 6,4 km/h (2 Bft) 97 %
_ Min-Zeit 05:40 05:40 05:20 16:10 23:40 - 00:00 - - - - - 05:40 05:40 00:20 06:30
Minimum _ 10,0 C 10,0 C 10,1 C 43 % 1012,9 hPa - 0,0 km/h (0 Bft) - - - - - 8,3 C 10,0 C 0,0 km/h (0 Bft) 89 %
_ Max-Zeit 16:10 16:10 16:10 07:20 00:00 00:00 10:40 - - 08:20 14:00 12:50 12:30 16:00 14:30 00:00
Maximum _ 27,2 C 27,0 C 27,2 C 90 % 1025,4 hPa 0,0 l/m 4,8 km/h
SO (1 Bft)
- - 10 min 0,610 mm 935 W/m 15,1 C 27,1 C 22,5 km/h
SO (4 Bft)
100 %
Durchschnitt _ 19,3 C 19,2 C 19,4 C 65 % 1019,5 hPa #0,0 l/m 1,3 km/h (1 Bft) O-SO - #8:00 h #3,835 mm 399 W/m 11,9 C 19,3 C 8,4 km/h (2 Bft) 100 %
PRIVATE WETTERSTATION BILLIGHEIM-ALLFELD - www.neckar-odenwald-wetter.de - Holger Sonntag